Alburtis, Pennsylvania
Current Conditions -  °F | °C
As of 10:15 AM on Saturday 25 Oct 2014 (Local Time) from KXLL Reporting Station
Clear Clear  
Wind Chill: 15°   Ceiling: Unl
Heat Index: 15°   Visibility: 10mi
Dew Point:   Wind: 5mph
Humidity: 51%   Direction: 240°WSW
Pressure: 29.9"   Gusts: NA
Location:  40.51°N, 75.6°W
Report Text: KXLL 251415Z AUTO 24004KT 10SM CLR 15/05 A2990 RMK AO2
Loading
Personal Weather Stations






























Interactive Weather Map New forecast layout! Learn more

10-Day Weather Forecast

Advertisements
Track Severe Weather on mobile